createdAt,value
2023-04-28T13:50:59.391Z,19.77
2023-04-28T13:53:29.316Z,19.00
2023-04-28T13:55:58.913Z,18.92
2023-04-28T13:58:28.002Z,18.75
2023-04-28T14:00:57.459Z,18.98
2023-04-28T14:03:26.864Z,18.15
2023-04-28T14:05:56.333Z,17.93
2023-04-28T14:08:26.499Z,19.00
2023-04-28T14:10:56.255Z,17.67
2023-04-28T14:13:25.447Z,17.92
2023-04-28T14:15:59.204Z,17.27
2023-04-28T14:18:25.193Z,18.32
2023-04-28T14:20:54.764Z,16.53
2023-04-28T14:23:23.876Z,15.03
2023-04-28T14:25:55.235Z,12.68
2023-04-28T14:28:23.940Z,11.65
2023-04-28T14:30:53.351Z,10.30
2023-04-28T14:33:22.836Z,8.93
2023-04-28T14:35:52.240Z,8.65
2023-04-28T14:38:21.317Z,7.50
2023-04-28T14:40:50.413Z,7.40
2023-04-28T14:43:19.724Z,6.53
2023-04-28T14:45:49.165Z,6.42
2023-04-28T14:48:18.416Z,6.23
2023-04-28T14:50:47.954Z,6.47
2023-04-28T14:53:17.018Z,6.15
2023-04-28T14:55:46.115Z,5.90
2023-04-28T14:58:15.847Z,5.80
2023-04-28T15:00:45.340Z,6.40
2023-04-28T15:03:14.611Z,5.95
2023-04-28T15:05:45.896Z,6.10
2023-04-28T15:08:16.738Z,6.80
2023-04-28T15:10:45.609Z,7.12
2023-04-28T15:13:14.816Z,6.90
2023-04-28T15:15:43.903Z,7.17
2023-04-28T15:18:13.409Z,7.87
2023-04-28T15:20:42.740Z,7.30
2023-04-28T15:23:13.655Z,7.25
2023-04-28T15:25:42.328Z,7.22
2023-04-28T15:28:11.634Z,7.40
2023-04-28T15:30:44.102Z,7.53
2023-04-28T15:33:13.422Z,8.35
2023-04-28T15:35:42.922Z,8.35
2023-04-28T15:38:12.090Z,8.38
2023-04-28T15:40:41.204Z,7.83
2023-04-28T15:43:10.613Z,7.87
2023-04-28T15:45:40.173Z,8.43
2023-04-28T15:48:09.401Z,8.08
2023-04-28T15:50:38.823Z,7.70
2023-04-28T15:53:08.119Z,8.08
2023-04-28T15:55:37.111Z,7.37
2023-04-28T15:58:06.447Z,7.70
2023-04-28T16:00:35.720Z,7.53
2023-04-28T16:03:05.007Z,7.95
2023-04-28T16:05:34.122Z,7.57
2023-04-28T16:08:03.625Z,7.08
2023-04-28T16:10:32.663Z,7.37
2023-04-28T16:13:02.123Z,7.17
2023-04-28T16:15:31.430Z,7.10
2023-04-28T16:18:00.839Z,7.35
2023-04-28T16:20:29.921Z,6.95
2023-04-28T16:22:59.428Z,6.83
2023-04-28T16:25:29.035Z,6.97
2023-04-28T16:27:58.431Z,7.20
2023-04-28T16:30:27.528Z,6.95
2023-04-28T16:32:57.108Z,6.90
2023-04-28T16:35:26.648Z,7.05
